Stations météo

réclame
Mon MeteoGroup
Beitem, Belgique (6414): Température de l'air & dewpoint: 13.06.2019 11:00:00 - 19.06.2019 11:00:00 (CEST)Beitem, Belgique (6414): Vitesse du vent & gusts: 13.06.2019 11:00:00 - 19.06.2019 11:00:00 (CEST)Beitem, Belgique (6414): Direction du vent: 13.06.2019 11:00:00 - 19.06.2019 11:00:00 (CEST)Beitem, Belgique (6414): reduced air pressure: 13.06.2019 11:00:00 - 19.06.2019 11:00:00 (CEST)Beitem, Belgique (6414): Ensoleillement: 13.06.2019 11:00:00 - 19.06.2019 11:00:00 (CEST)Beitem, Belgique (6414): Quantités de précipitations: 13.06.2019 11:00:00 - 19.06.2019 11:00:00 (CEST)
Date & Time tt [°C] td [°C] ff [km/h] ff [knt] fx [km/h] fx [knt] dd ppp [hPa] sd [min] rr [mm]
19.06.2019 11:00:00 - - - - - - - - - -
19.06.2019 10:00:00 19,2 16,3 9 5 22 12 S 1007,6 6 0,0
19.06.2019 09:00:00 18,6 16,0 10 5 16 9 ESE 1006,8 45 0,0
19.06.2019 08:00:00 16,5 15,4 11 6 16 9 ESE 1006,9 0 0,2
19.06.2019 07:00:00 16,0 15,0 10 5 68 37 NNW 1007,3 0 7,5
19.06.2019 06:00:00 17,4 14,0 13 7 24 13 NE 1007,3 0 0,0
19.06.2019 05:00:00 17,5 13,7 19 10 37 20 N 1008,6 0 0,0
19.06.2019 04:00:00 19,0 16,1 18 10 44 24 NW 1009,2 0 0,0
19.06.2019 03:00:00 17,5 16,8 4 2 7 4 E 1008,2 0 0,0
19.06.2019 02:00:00 17,9 16,9 4 2 8 4 E 1008,8 0 0,0
19.06.2019 01:00:00 18,5 17,1 4 2 9 5 ENE 1009,3 0 0,0
19.06.2019 00:00:00 19,4 17,5 5 3 10 6 ENE 1010,1 0 0,0
18.06.2019 23:00:00 21,1 17,7 7 4 10 6 ENE 1010,7 0 0,0
18.06.2019 22:00:00 24,0 15,4 6 3 14 8 ESE 1010,6 0 0,0
18.06.2019 21:00:00 24,9 16,5 6 3 8 5 E 1010,8 0 0,0
18.06.2019 20:00:00 25,6 15,3 7 4 15 8 ESE 1011,4 13 0,0
18.06.2019 19:00:00 26,2 14,5 10 6 17 9 ESE 1011,4 22 0,0
18.06.2019 18:00:00 26,5 13,4 11 6 18 10 ESE 1011,8 60 0,0
18.06.2019 17:00:00 26,7 13,0 13 7 23 12 SE 1012,3 60 0,0
18.06.2019 16:00:00 26,7 13,7 9 5 21 12 SE 1013,0 59 0,0
18.06.2019 15:00:00 25,7 14,6 9 5 21 11 E 1013,6 59 0,0
18.06.2019 14:00:00 24,8 15,8 7 4 17 9 ESE 1014,2 60 0,0
18.06.2019 13:00:00 23,7 15,1 6 3 11 6 SSE 1014,9 60 0,0
18.06.2019 12:00:00 22,3 14,6 5 3 12 7 ENE 1015,2 60 0,0
18.06.2019 11:00:00 20,4 13,3 6 3 11 6 ENE 1015,8 56 0,0
18.06.2019 10:00:00 19,1 12,4 9 5 13 7 ENE 1015,8 42 0,0
18.06.2019 09:00:00 18,0 12,1 6 3 8 5 NNE 1016,3 60 0,0
18.06.2019 08:00:00 16,3 13,4 4 2 4 2 N 1016,3 56 0,0
18.06.2019 07:00:00 13,1 12,7 0 0 4 2 N 1016,6 31 0,0
18.06.2019 06:00:00 11,7 11,4 0 0 6 3 N 1016,6 0 0,0
18.06.2019 05:00:00 11,9 11,7 4 2 6 3 NW 1016,9 0 0,0
18.06.2019 04:00:00 11,8 11,4 4 2 5 3 NW 1017,2 0 0,0
18.06.2019 03:00:00 13,1 11,8 4 2 7 4 N 1017,3 0 0,0
18.06.2019 02:00:00 14,2 12,4 7 4 9 5 NNW 1017,8 0 0,0
18.06.2019 01:00:00 14,9 12,9 5 3 10 5 NW 1018,1 0 0,0
18.06.2019 00:00:00 15,7 13,3 7 4 16 9 NW 1017,7 0 0,0
17.06.2019 23:00:00 16,9 13,9 10 5 17 9 NW 1017,5 0 0,0
17.06.2019 22:00:00 19,5 15,2 9 5 14 7 N 1017,3 0 0,0
17.06.2019 21:00:00 21,4 15,6 9 5 16 9 NNE 1017,2 49 0,0
17.06.2019 20:00:00 22,8 16,0 14 8 19 11 N 1017,3 52 0,0
17.06.2019 19:00:00 24,4 13,0 10 5 22 12 W 1017,6 52 0,0
17.06.2019 18:00:00 24,5 13,3 10 5 22 12 SSW 1017,8 59 0,0
17.06.2019 17:00:00 24,6 13,7 13 7 26 14 SW 1018,3 50 0,0
17.06.2019 16:00:00 23,8 12,9 11 6 30 16 SW 1018,7 52 0,0
17.06.2019 15:00:00 23,6 13,4 13 7 24 13 SSW 1019,0 44 0,0
17.06.2019 14:00:00 23,2 13,5 14 8 25 13 SSW 1019,3 55 0,0
17.06.2019 13:00:00 21,7 13,4 11 6 21 12 SSW 1019,8 45 0,0
17.06.2019 12:00:00 21,5 13,4 10 6 21 11 SW 1020,0 55 0,0
17.06.2019 11:00:00 20,9 13,9 10 6 19 11 SW 1020,5 60 0,0
17.06.2019 10:00:00 19,7 14,9 10 5 15 8 SSW 1020,5 60 0,0
17.06.2019 09:00:00 17,5 15,5 9 5 13 7 SSW 1020,6 60 0,0
17.06.2019 08:00:00 15,2 14,7 7 4 11 6 SSE 1020,6 60 0,0
17.06.2019 07:00:00 12,6 12,6 4 2 5 3 SSE 1020,8 35 0,0
17.06.2019 06:00:00 10,5 10,5 4 2 6 3 SE 1020,4 0 0,0
17.06.2019 05:00:00 11,0 11,0 4 2 5 3 SE 1020,5 0 0,0
17.06.2019 04:00:00 11,3 11,3 4 2 4 2 SE 1020,8 0 0,0
17.06.2019 03:00:00 12,1 12,1 4 2 4 2 E 1021,2 0 0,0
17.06.2019 02:00:00 12,4 12,4 0 0 6 4 N 1021,4 0 0,0
17.06.2019 01:00:00 12,7 12,6 4 2 4 2 E 1021,2 0 0,0
17.06.2019 00:00:00 14,0 13,2 0 0 4 2 N 1021,4 0 0,0
16.06.2019 23:00:00 15,0 12,4 4 2 8 4 W 1021,1 0 0,0
16.06.2019 22:00:00 18,1 13,4 6 3 11 6 W 1020,9 48 0,0
16.06.2019 21:00:00 18,7 14,4 8 5 14 7 SW 1021,0 13 0,0
16.06.2019 20:00:00 19,4 13,8 14 8 21 11 SSW 1020,9 48 0,0
16.06.2019 19:00:00 19,5 13,9 12 6 26 14 WSW 1020,7 16 0,0
16.06.2019 18:00:00 19,8 13,2 13 7 27 15 SW 1020,6 34 0,0
16.06.2019 17:00:00 19,3 15,2 12 6 33 18 SW 1020,6 14 0,4
16.06.2019 16:00:00 19,2 13,3 21 12 40 22 SW 1020,9 40 0,0
16.06.2019 15:00:00 20,7 12,8 21 11 37 20 WSW 1020,3 46 0,0
16.06.2019 14:00:00 19,5 12,8 18 10 32 17 SW 1020,4 41 0,0
16.06.2019 13:00:00 19,3 13,2 21 12 33 18 SW 1020,4 46 0,0
16.06.2019 12:00:00 18,2 13,0 21 12 33 18 SW 1020,5 40 0,0
16.06.2019 11:00:00 16,9 13,5 14 8 27 15 SW 1019,9 28 0,0
16.06.2019 10:00:00 15,9 13,7 15 8 28 15 SW 1020,0 12 0,0
16.06.2019 09:00:00 14,8 13,3 15 8 25 14 SSW 1019,8 0 0,0
16.06.2019 08:00:00 14,4 12,8 18 10 25 13 SSW 1019,0 17 0,0
16.06.2019 07:00:00 13,6 12,3 13 7 18 10 S 1018,5 3 0,0
16.06.2019 06:00:00 12,7 11,7 9 5 19 11 S 1018,5 0 0,0
16.06.2019 05:00:00 12,9 11,5 11 6 15 8 S 1018,0 0 0,0
16.06.2019 04:00:00 13,8 11,9 9 5 14 8 S 1017,8 0 0,0
16.06.2019 03:00:00 13,3 11,6 9 5 14 8 SSW 1017,6 0 0,0
16.06.2019 02:00:00 14,6 12,0 7 4 23 13 SW 1017,5 0 0,0
16.06.2019 01:00:00 14,8 12,1 9 5 12 7 SSW 1017,2 0 0,0
16.06.2019 00:00:00 14,7 12,0 6 3 9 5 S 1017,1 0 0,0
15.06.2019 23:00:00 15,6 12,8 6 4 13 7 SSW 1016,7 0 0,0
15.06.2019 22:00:00 18,0 12,0 8 5 18 10 WSW 1016,3 4 0,0
15.06.2019 21:00:00 19,1 12,1 7 4 13 7 WSW 1016,2 3 0,0
15.06.2019 20:00:00 19,3 11,0 11 6 24 13 SW 1015,8 19 0,0
15.06.2019 19:00:00 20,7 9,7 14 7 28 15 WSW 1015,6 57 0,0
15.06.2019 18:00:00 20,5 12,3 10 5 19 10 SW 1015,7 54 0,0
15.06.2019 17:00:00 19,0 12,8 5 3 21 12 NNW 1015,9 4 0,0
15.06.2019 16:00:00 19,1 13,5 12 6 39 21 NNW 1015,8 33 0,4
15.06.2019 15:00:00 18,9 12,8 10 5 22 12 SW 1015,2 11 0,1
15.06.2019 14:00:00 20,5 13,0 7 4 14 8 SW 1015,1 50 0,0
15.06.2019 13:00:00 19,4 12,2 7 4 16 9 WSW 1015,2 54 0,0
15.06.2019 12:00:00 18,3 13,8 5 3 15 8 W 1014,7 60 0,0
15.06.2019 11:00:00 16,0 13,7 8 4 14 7 NW 1014,5 33 0,0
15.06.2019 10:00:00 14,3 13,7 9 5 13 7 WNW 1014,1 0 0,1
15.06.2019 09:00:00 13,6 13,4 10 6 15 8 WNW 1013,5 0 0,7
15.06.2019 08:00:00 13,3 13,0 4 2 8 4 NW 1012,8 0 0,0
15.06.2019 07:00:00 12,9 12,6 5 3 17 9 NNE 1012,4 0 0,3
15.06.2019 06:00:00 13,1 12,2 9 5 17 9 N 1012,3 0 0,0
15.06.2019 05:00:00 13,2 11,8 9 5 19 11 NE 1012,3 0 0,0
15.06.2019 04:00:00 13,5 11,7 9 5 20 11 NNE 1012,4 0 0,5
15.06.2019 03:00:00 14,6 11,3 8 5 15 8 ENE 1012,3 0 0,0
15.06.2019 02:00:00 14,8 11,1 7 4 15 8 NNE 1012,6 0 0,0
15.06.2019 01:00:00 15,0 11,2 9 5 18 10 NNE 1012,8 0 0,0
15.06.2019 00:00:00 15,3 11,7 8 4 16 9 NNE 1013,4 0 0,0
14.06.2019 23:00:00 15,7 11,2 9 5 18 10 NNE 1013,4 0 0,0
14.06.2019 22:00:00 16,2 10,8 14 8 24 13 N 1013,6 9 0,0
14.06.2019 21:00:00 17,1 11,1 13 7 25 13 NNE 1013,5 41 0,0
14.06.2019 20:00:00 18,5 12,9 14 8 29 16 NNE 1012,9 53 0,0
14.06.2019 19:00:00 21,5 12,4 9 5 17 9 WSW 1012,6 47 0,0
14.06.2019 18:00:00 20,9 12,3 12 7 23 13 SSW 1012,8 17 0,0
14.06.2019 17:00:00 21,5 12,6 14 8 27 14 SW 1013,1 51 0,0
14.06.2019 16:00:00 20,9 12,3 16 9 29 16 SW 1013,5 28 0,0
14.06.2019 15:00:00 21,0 12,7 18 10 32 18 SW 1014,0 51 0,0
14.06.2019 14:00:00 20,3 12,8 17 9 - - SW 1014,0 29 -
14.06.2019 13:00:00 19,8 12,8 17 9 31 17 SW 1014,0 54 0,0
14.06.2019 12:00:00 18,6 12,5 18 10 29 16 SSW 1013,7 59 0,0
14.06.2019 11:00:00 17,9 13,2 17 9 24 13 S 1013,3 60 0,0
14.06.2019 10:00:00 16,1 13,9 7 4 16 8 SSE 1013,0 37 0,1
14.06.2019 09:00:00 13,0 12,8 10 5 14 8 SE 1013,6 0 0,2
14.06.2019 08:00:00 12,6 12,6 7 4 12 6 SSE 1013,1 0 0,0
14.06.2019 07:00:00 11,7 11,7 8 4 15 8 S 1013,0 0 0,0
14.06.2019 06:00:00 10,9 10,9 8 4 11 6 S 1012,9 0 0,0
14.06.2019 05:00:00 10,4 10,3 5 3 10 5 SSE 1012,7 0 0,0
14.06.2019 04:00:00 10,9 10,4 5 3 10 6 SSE 1012,3 0 0,0
14.06.2019 03:00:00 11,0 10,3 7 4 11 6 SSE 1012,5 0 0,0
14.06.2019 02:00:00 11,6 10,4 7 4 14 8 S 1012,8 0 0,0
14.06.2019 01:00:00 12,1 10,7 9 5 13 7 S 1013,0 0 0,0
14.06.2019 00:00:00 12,8 11,8 6 3 11 6 S 1012,5 0 0,0
13.06.2019 23:00:00 12,9 12,1 5 3 10 5 SSW 1012,3 0 0,0
13.06.2019 22:00:00 13,4 12,3 7 4 18 10 S 1011,7 1 0,0
13.06.2019 21:00:00 13,9 11,9 12 7 21 11 SW 1011,1 21 0,0
13.06.2019 20:00:00 13,2 12,0 14 8 41 22 SSW 1010,7 0 0,4
13.06.2019 19:00:00 14,0 12,9 11 6 36 20 SSW 1010,4 3 0,4
13.06.2019 18:00:00 15,4 12,5 14 8 34 18 WSW 1010,7 21 0,4
13.06.2019 17:00:00 14,3 12,0 29 16 51 28 SSW 1010,1 14 0,3
13.06.2019 16:00:00 15,9 11,9 25 13 45 24 SSW 1010,0 27 0,0
13.06.2019 15:00:00 16,1 12,7 22 12 - - S 1009,9 12 -
13.06.2019 14:00:00 14,5 12,7 26 14 - - S 1010,6 6 -
13.06.2019 13:00:00 14,6 11,3 29 15 45 25 SSW 1010,7 3 0,0
13.06.2019 12:00:00 14,9 11,0 26 14 45 24 SSW 1010,5 26 0,0
13.06.2019 11:00:00 14,7 11,8 25 14 40 21 S 1010,3 24 0,0

tt = Température de l'air
td = dewpoint
ff = Vitesse du vent
fx = gusts
dd = Direction du vent
ppp = reduced air pressure
sd = Ensoleillement
rr = Quantités de précipitations

stations d'obs. à proximité